Riverbank, California
Current Conditions -  °F | °C
As of 3:53 PM on Monday 24 Nov 2014 (Local Time) from KMOD Reporting Station
Clear Clear  
Wind Chill: 63°   Ceiling: Unl
Heat Index: 63°   Visibility: 10mi
Dew Point: 40°   Wind: 3mph
Humidity: 43%   Direction: 60°ENE
Pressure: 30.35"   Gusts: NA
Location:  37.74°N, 120.93°W
Report Text: KMOD 242353Z 06003KT 10SM CLR 17/04 A3035 RMK AO2 SLP279 T01720044 10178 20111 55005
Loading
Personal Weather Stations






























Interactive Weather Map New forecast layout! Learn more

10-Day Weather Forecast

Advertisements
Track Severe Weather on mobile